Riga, Latvia
Current Conditions -  °F | °C
As of 3:50 AM on Sunday 23 Nov 2014 (Local Time) from EVRA Reporting Station
Haze Haze  
Wind Chill: 32°   Ceiling: 200
Heat Index: 32°   Visibility: 1mi
Dew Point: 32°   Wind: 3mph
Humidity: 100%   Direction: 180°S
Pressure: 30.42"   Gusts: NA
Location:  56.97°N, 24.13°E
Report Text: EVRA 230050Z 18003KT 1600 1200W R18/P2000N BR OVC002 00/00 Q1030 R18/290195 NOSIG
Loading
Personal Weather Stations






























Interactive Weather Map New forecast layout! Learn more

10-Day Weather Forecast

Advertisements
Track Severe Weather on mobile